sensor_id;sensor_type;location;lat;lon;timestamp;P1;durP1;ratioP1;P2;durP2;ratioP2
2386;SDS011;49473;50.772;8.768;2023-06-22T00:02:16;13.00;;;12.10;;
2386;SDS011;49473;50.772;8.768;2023-06-22T00:04:43;12.63;;;11.60;;
2386;SDS011;49473;50.772;8.768;2023-06-22T00:07:09;12.87;;;11.97;;
2386;SDS011;49473;50.772;8.768;2023-06-22T00:09:36;12.83;;;11.77;;
2386;SDS011;49473;50.772;8.768;2023-06-22T00:12:05;12.97;;;11.97;;
2386;SDS011;49473;50.772;8.768;2023-06-22T00:14:32;13.87;;;12.77;;
2386;SDS011;49473;50.772;8.768;2023-06-22T00:16:59;15.70;;;14.60;;
2386;SDS011;49473;50.772;8.768;2023-06-22T00:19:26;13.80;;;12.87;;
2386;SDS011;49473;50.772;8.768;2023-06-22T00:21:52;13.87;;;12.67;;
2386;SDS011;49473;50.772;8.768;2023-06-22T00:24:19;13.50;;;12.60;;
2386;SDS011;49473;50.772;8.768;2023-06-22T00:26:47;14.77;;;13.77;;
2386;SDS011;49473;50.772;8.768;2023-06-22T00:29:15;14.57;;;13.50;;
2386;SDS011;49473;50.772;8.768;2023-06-22T00:31:43;16.47;;;15.23;;
2386;SDS011;49473;50.772;8.768;2023-06-22T00:34:10;15.50;;;14.30;;
2386;SDS011;49473;50.772;8.768;2023-06-22T00:36:37;15.20;;;14.00;;
2386;SDS011;49473;50.772;8.768;2023-06-22T00:39:05;13.80;;;12.60;;
2386;SDS011;49473;50.772;8.768;2023-06-22T00:41:33;16.47;;;15.20;;
2386;SDS011;49473;50.772;8.768;2023-06-22T00:44:00;16.60;;;15.30;;
2386;SDS011;49473;50.772;8.768;2023-06-22T00:46:28;16.80;;;15.53;;
2386;SDS011;49473;50.772;8.768;2023-06-22T00:48:55;16.77;;;15.50;;
2386;SDS011;49473;50.772;8.768;2023-06-22T00:51:22;17.30;;;16.00;;
2386;SDS011;49473;50.772;8.768;2023-06-22T00:53:49;18.00;;;16.40;;
2386;SDS011;49473;50.772;8.768;2023-06-22T00:56:16;16.47;;;15.27;;
2386;SDS011;49473;50.772;8.768;2023-06-22T00:58:49;16.40;;;14.90;;
2386;SDS011;49473;50.772;8.768;2023-06-22T01:01:18;16.83;;;15.33;;
2386;SDS011;49473;50.772;8.768;2023-06-22T01:03:49;15.47;;;14.40;;
2386;SDS011;49473;50.772;8.768;2023-06-22T01:06:19;15.30;;;14.20;;
2386;SDS011;49473;50.772;8.768;2023-06-22T01:08:53;17.33;;;16.03;;
2386;SDS011;49473;50.772;8.768;2023-06-22T01:11:31;15.77;;;14.57;;
2386;SDS011;49473;50.772;8.768;2023-06-22T01:14:04;15.93;;;14.73;;
2386;SDS011;49473;50.772;8.768;2023-06-22T01:16:33;15.80;;;14.63;;
2386;SDS011;49473;50.772;8.768;2023-06-22T01:19:18;15.13;;;13.90;;
2386;SDS011;49473;50.772;8.768;2023-06-22T01:21:54;13.40;;;12.40;;
2386;SDS011;49473;50.772;8.768;2023-06-22T01:24:23;14.00;;;13.00;;
2386;SDS011;49473;50.772;8.768;2023-06-22T01:26:54;13.60;;;12.70;;
2386;SDS011;49473;50.772;8.768;2023-06-22T01:29:32;13.53;;;12.40;;
2386;SDS011;49473;50.772;8.768;2023-06-22T01:32:01;13.73;;;12.77;;
2386;SDS011;49473;50.772;8.768;2023-06-22T01:34:30;14.67;;;13.57;;
2386;SDS011;49473;50.772;8.768;2023-06-22T01:36:58;14.40;;;13.20;;
2386;SDS011;49473;50.772;8.768;2023-06-22T01:39:25;14.50;;;13.50;;
2386;SDS011;49473;50.772;8.768;2023-06-22T01:41:53;13.37;;;12.33;;
2386;SDS011;49473;50.772;8.768;2023-06-22T01:44:20;14.63;;;13.53;;
2386;SDS011;49473;50.772;8.768;2023-06-22T01:46:49;14.43;;;13.13;;
2386;SDS011;49473;50.772;8.768;2023-06-22T01:49:16;15.60;;;14.27;;
2386;SDS011;49473;50.772;8.768;2023-06-22T01:51:42;13.70;;;12.63;;
2386;SDS011;49473;50.772;8.768;2023-06-22T01:54:09;14.90;;;13.70;;
2386;SDS011;49473;50.772;8.768;2023-06-22T01:56:36;13.80;;;12.80;;
2386;SDS011;49473;50.772;8.768;2023-06-22T01:59:04;14.03;;;13.10;;
2386;SDS011;49473;50.772;8.768;2023-06-22T02:01:40;13.47;;;12.47;;
2386;SDS011;49473;50.772;8.768;2023-06-22T02:04:11;14.53;;;13.17;;
2386;SDS011;49473;50.772;8.768;2023-06-22T02:06:43;14.53;;;13.50;;
2386;SDS011;49473;50.772;8.768;2023-06-22T02:09:14;14.10;;;13.07;;
2386;SDS011;49473;50.772;8.768;2023-06-22T02:11:43;14.63;;;13.43;;
2386;SDS011;49473;50.772;8.768;2023-06-22T02:14:12;14.77;;;13.67;;
2386;SDS011;49473;50.772;8.768;2023-06-22T02:16:40;15.60;;;14.30;;
2386;SDS011;49473;50.772;8.768;2023-06-22T02:19:07;14.10;;;13.00;;
2386;SDS011;49473;50.772;8.768;2023-06-22T02:21:36;14.50;;;13.40;;
2386;SDS011;49473;50.772;8.768;2023-06-22T02:24:03;14.80;;;13.70;;
2386;SDS011;49473;50.772;8.768;2023-06-22T02:26:30;16.77;;;15.57;;
2386;SDS011;49473;50.772;8.768;2023-06-22T02:28:59;15.47;;;14.47;;
2386;SDS011;49473;50.772;8.768;2023-06-22T02:31:26;16.97;;;15.67;;
2386;SDS011;49473;50.772;8.768;2023-06-22T02:33:55;15.87;;;14.77;;
2386;SDS011;49473;50.772;8.768;2023-06-22T02:36:22;15.70;;;14.50;;
2386;SDS011;49473;50.772;8.768;2023-06-22T02:38:51;16.00;;;14.80;;
2386;SDS011;49473;50.772;8.768;2023-06-22T02:41:18;15.33;;;14.10;;
2386;SDS011;49473;50.772;8.768;2023-06-22T02:43:45;15.03;;;13.93;;
2386;SDS011;49473;50.772;8.768;2023-06-22T02:46:12;14.97;;;13.87;;
2386;SDS011;49473;50.772;8.768;2023-06-22T02:48:39;13.83;;;12.67;;
2386;SDS011;49473;50.772;8.768;2023-06-22T02:51:06;14.60;;;13.53;;
2386;SDS011;49473;50.772;8.768;2023-06-22T02:53:33;14.70;;;13.50;;
2386;SDS011;49473;50.772;8.768;2023-06-22T02:56:02;14.50;;;13.30;;
2386;SDS011;49473;50.772;8.768;2023-06-22T02:58:30;16.00;;;14.90;;
2386;SDS011;49473;50.772;8.768;2023-06-22T03:00:58;16.03;;;14.77;;
2386;SDS011;49473;50.772;8.768;2023-06-22T03:03:29;16.83;;;15.53;;
2386;SDS011;49473;50.772;8.768;2023-06-22T03:05:56;16.43;;;15.23;;
2386;SDS011;49473;50.772;8.768;2023-06-22T03:08:23;16.60;;;15.20;;
2386;SDS011;49473;50.772;8.768;2023-06-22T03:10:49;16.13;;;14.70;;
2386;SDS011;49473;50.772;8.768;2023-06-22T03:13:17;16.57;;;15.30;;
2386;SDS011;49473;50.772;8.768;2023-06-22T03:15:44;17.07;;;15.60;;
2386;SDS011;49473;50.772;8.768;2023-06-22T03:18:11;16.10;;;14.90;;
2386;SDS011;49473;50.772;8.768;2023-06-22T03:20:38;17.80;;;16.27;;
2386;SDS011;49473;50.772;8.768;2023-06-22T03:23:05;16.80;;;15.33;;
2386;SDS011;49473;50.772;8.768;2023-06-22T03:25:31;18.30;;;16.73;;
2386;SDS011;49473;50.772;8.768;2023-06-22T03:27:59;18.47;;;16.73;;
2386;SDS011;49473;50.772;8.768;2023-06-22T03:30:27;16.80;;;15.40;;
2386;SDS011;49473;50.772;8.768;2023-06-22T03:32:54;17.10;;;15.83;;
2386;SDS011;49473;50.772;8.768;2023-06-22T03:35:21;17.40;;;16.07;;
2386;SDS011;49473;50.772;8.768;2023-06-22T03:37:48;17.60;;;16.17;;
2386;SDS011;49473;50.772;8.768;2023-06-22T03:40:14;18.23;;;16.97;;
2386;SDS011;49473;50.772;8.768;2023-06-22T03:42:41;17.90;;;16.40;;
2386;SDS011;49473;50.772;8.768;2023-06-22T03:45:08;18.40;;;17.00;;
2386;SDS011;49473;50.772;8.768;2023-06-22T03:47:37;20.00;;;18.40;;
2386;SDS011;49473;50.772;8.768;2023-06-22T03:50:05;19.80;;;18.27;;
2386;SDS011;49473;50.772;8.768;2023-06-22T03:52:32;20.27;;;18.80;;
2386;SDS011;49473;50.772;8.768;2023-06-22T03:54:59;20.70;;;19.10;;
2386;SDS011;49473;50.772;8.768;2023-06-22T03:57:26;21.17;;;18.90;;
2386;SDS011;49473;50.772;8.768;2023-06-22T03:59:54;19.03;;;17.60;;
2386;SDS011;49473;50.772;8.768;2023-06-22T04:02:22;19.33;;;18.00;;
2386;SDS011;49473;50.772;8.768;2023-06-22T04:04:50;19.40;;;18.10;;
2386;SDS011;49473;50.772;8.768;2023-06-22T04:07:17;19.50;;;18.07;;
2386;SDS011;49473;50.772;8.768;2023-06-22T04:09:44;18.23;;;16.70;;
2386;SDS011;49473;50.772;8.768;2023-06-22T04:12:10;19.13;;;17.83;;
2386;SDS011;49473;50.772;8.768;2023-06-22T04:14:37;18.23;;;16.93;;
2386;SDS011;49473;50.772;8.768;2023-06-22T04:17:04;18.47;;;17.00;;
2386;SDS011;49473;50.772;8.768;2023-06-22T04:19:31;17.50;;;15.83;;
2386;SDS011;49473;50.772;8.768;2023-06-22T04:21:59;17.57;;;16.17;;
2386;SDS011;49473;50.772;8.768;2023-06-22T04:24:26;16.40;;;15.20;;
2386;SDS011;49473;50.772;8.768;2023-06-22T04:26:52;18.70;;;17.17;;
2386;SDS011;49473;50.772;8.768;2023-06-22T04:29:19;17.87;;;16.50;;
2386;SDS011;49473;50.772;8.768;2023-06-22T04:31:55;18.10;;;16.47;;
2386;SDS011;49473;50.772;8.768;2023-06-22T04:34:23;17.50;;;16.30;;
2386;SDS011;49473;50.772;8.768;2023-06-22T04:36:51;17.30;;;15.83;;
2386;SDS011;49473;50.772;8.768;2023-06-22T04:39:19;18.07;;;16.67;;
2386;SDS011;49473;50.772;8.768;2023-06-22T04:41:47;17.53;;;16.30;;
2386;SDS011;49473;50.772;8.768;2023-06-22T04:44:14;15.80;;;14.33;;
2386;SDS011;49473;50.772;8.768;2023-06-22T04:46:48;17.43;;;16.03;;
2386;SDS011;49473;50.772;8.768;2023-06-22T04:49:18;17.10;;;15.90;;
2386;SDS011;49473;50.772;8.768;2023-06-22T04:51:47;17.03;;;15.67;;
2386;SDS011;49473;50.772;8.768;2023-06-22T04:54:14;17.07;;;15.57;;
2386;SDS011;49473;50.772;8.768;2023-06-22T04:56:42;16.00;;;14.67;;
2386;SDS011;49473;50.772;8.768;2023-06-22T04:59:11;16.53;;;15.20;;
2386;SDS011;49473;50.772;8.768;2023-06-22T05:01:40;17.27;;;15.77;;
2386;SDS011;49473;50.772;8.768;2023-06-22T05:04:07;18.30;;;15.77;;
2386;SDS011;49473;50.772;8.768;2023-06-22T05:06:33;16.40;;;15.10;;
2386;SDS011;49473;50.772;8.768;2023-06-22T05:09:00;15.37;;;14.20;;
2386;SDS011;49473;50.772;8.768;2023-06-22T05:11:28;16.83;;;15.57;;
2386;SDS011;49473;50.772;8.768;2023-06-22T05:13:56;17.77;;;16.47;;
2386;SDS011;49473;50.772;8.768;2023-06-22T05:16:23;16.30;;;15.00;;
2386;SDS011;49473;50.772;8.768;2023-06-22T05:18:54;16.50;;;15.17;;
2386;SDS011;49473;50.772;8.768;2023-06-22T05:21:21;15.50;;;14.30;;
2386;SDS011;49473;50.772;8.768;2023-06-22T05:23:49;16.70;;;15.40;;
2386;SDS011;49473;50.772;8.768;2023-06-22T05:26:16;15.47;;;14.17;;
2386;SDS011;49473;50.772;8.768;2023-06-22T05:28:43;15.00;;;13.80;;
2386;SDS011;49473;50.772;8.768;2023-06-22T05:31:12;15.23;;;13.90;;
2386;SDS011;49473;50.772;8.768;2023-06-22T05:33:39;15.57;;;14.47;;
2386;SDS011;49473;50.772;8.768;2023-06-22T05:36:06;13.73;;;12.73;;
2386;SDS011;49473;50.772;8.768;2023-06-22T05:38:33;15.13;;;13.93;;
2386;SDS011;49473;50.772;8.768;2023-06-22T05:41:00;14.73;;;13.73;;
2386;SDS011;49473;50.772;8.768;2023-06-22T05:43:27;14.63;;;13.37;;
2386;SDS011;49473;50.772;8.768;2023-06-22T05:45:54;12.70;;;11.80;;
2386;SDS011;49473;50.772;8.768;2023-06-22T05:48:22;12.97;;;12.17;;
2386;SDS011;49473;50.772;8.768;2023-06-22T05:50:49;13.27;;;12.23;;
2386;SDS011;49473;50.772;8.768;2023-06-22T05:53:16;14.17;;;13.17;;
2386;SDS011;49473;50.772;8.768;2023-06-22T05:55:43;12.80;;;11.90;;
2386;SDS011;49473;50.772;8.768;2023-06-22T05:58:09;11.73;;;10.83;;
2386;SDS011;49473;50.772;8.768;2023-06-22T06:00:38;12.27;;;11.07;;
2386;SDS011;49473;50.772;8.768;2023-06-22T06:03:05;11.53;;;10.57;;
2386;SDS011;49473;50.772;8.768;2023-06-22T06:05:33;12.83;;;11.70;;
2386;SDS011;49473;50.772;8.768;2023-06-22T06:08:00;11.37;;;10.67;;
2386;SDS011;49473;50.772;8.768;2023-06-22T06:10:29;11.67;;;10.87;;
2386;SDS011;49473;50.772;8.768;2023-06-22T06:12:57;10.50;;;9.80;;
2386;SDS011;49473;50.772;8.768;2023-06-22T06:15:23;9.40;;;8.70;;
2386;SDS011;49473;50.772;8.768;2023-06-22T06:17:50;9.43;;;8.50;;
2386;SDS011;49473;50.772;8.768;2023-06-22T06:20:19;9.93;;;8.80;;
2386;SDS011;49473;50.772;8.768;2023-06-22T06:22:48;9.07;;;8.47;;
2386;SDS011;49473;50.772;8.768;2023-06-22T06:25:15;9.70;;;8.90;;
2386;SDS011;49473;50.772;8.768;2023-06-22T06:27:42;9.80;;;9.10;;
2386;SDS011;49473;50.772;8.768;2023-06-22T06:30:10;8.83;;;8.13;;
2386;SDS011;49473;50.772;8.768;2023-06-22T06:32:37;7.87;;;7.37;;
2386;SDS011;49473;50.772;8.768;2023-06-22T06:35:05;9.17;;;8.50;;
2386;SDS011;49473;50.772;8.768;2023-06-22T06:37:33;8.73;;;8.03;;
2386;SDS011;49473;50.772;8.768;2023-06-22T06:40:03;9.97;;;9.17;;
2386;SDS011;49473;50.772;8.768;2023-06-22T06:42:31;9.60;;;9.00;;
2386;SDS011;49473;50.772;8.768;2023-06-22T06:44:58;9.63;;;9.00;;
2386;SDS011;49473;50.772;8.768;2023-06-22T06:47:25;9.30;;;8.70;;
2386;SDS011;49473;50.772;8.768;2023-06-22T06:49:52;9.73;;;8.93;;
2386;SDS011;49473;50.772;8.768;2023-06-22T06:52:18;9.30;;;8.60;;
2386;SDS011;49473;50.772;8.768;2023-06-22T06:54:45;8.40;;;7.80;;
2386;SDS011;49473;50.772;8.768;2023-06-22T06:57:13;7.50;;;7.00;;
2386;SDS011;49473;50.772;8.768;2023-06-22T06:59:40;8.13;;;7.57;;
2386;SDS011;49473;50.772;8.768;2023-06-22T07:02:07;8.50;;;8.00;;
2386;SDS011;49473;50.772;8.768;2023-06-22T07:04:34;8.53;;;7.80;;
2386;SDS011;49473;50.772;8.768;2023-06-22T07:07:01;8.70;;;8.00;;
2386;SDS011;49473;50.772;8.768;2023-06-22T07:09:28;7.90;;;7.40;;
2386;SDS011;49473;50.772;8.768;2023-06-22T07:11:55;8.47;;;7.90;;
2386;SDS011;49473;50.772;8.768;2023-06-22T07:14:23;8.37;;;7.77;;
2386;SDS011;49473;50.772;8.768;2023-06-22T07:16:50;8.40;;;7.90;;
2386;SDS011;49473;50.772;8.768;2023-06-22T07:19:16;8.87;;;8.20;;
2386;SDS011;49473;50.772;8.768;2023-06-22T07:21:50;9.07;;;8.37;;
2386;SDS011;49473;50.772;8.768;2023-06-22T07:24:17;8.20;;;7.60;;
2386;SDS011;49473;50.772;8.768;2023-06-22T07:26:44;8.73;;;8.13;;
2386;SDS011;49473;50.772;8.768;2023-06-22T07:29:11;7.90;;;7.30;;
2386;SDS011;49473;50.772;8.768;2023-06-22T07:31:39;7.80;;;7.30;;
2386;SDS011;49473;50.772;8.768;2023-06-22T07:34:06;9.00;;;8.33;;
2386;SDS011;49473;50.772;8.768;2023-06-22T07:36:33;9.17;;;8.47;;
2386;SDS011;49473;50.772;8.768;2023-06-22T07:39:00;9.20;;;8.30;;
2386;SDS011;49473;50.772;8.768;2023-06-22T07:41:28;8.50;;;7.73;;
2386;SDS011;49473;50.772;8.768;2023-06-22T07:43:55;8.47;;;7.70;;
2386;SDS011;49473;50.772;8.768;2023-06-22T07:46:21;8.50;;;7.70;;
2386;SDS011;49473;50.772;8.768;2023-06-22T07:48:49;7.70;;;7.13;;
2386;SDS011;49473;50.772;8.768;2023-06-22T07:51:16;9.20;;;7.83;;
2386;SDS011;49473;50.772;8.768;2023-06-22T07:53:43;7.93;;;7.33;;
2386;SDS011;49473;50.772;8.768;2023-06-22T07:56:10;7.97;;;7.40;;
2386;SDS011;49473;50.772;8.768;2023-06-22T07:58:37;7.60;;;7.00;;
2386;SDS011;49473;50.772;8.768;2023-06-22T08:01:04;7.73;;;7.23;;
2386;SDS011;49473;50.772;8.768;2023-06-22T08:03:31;7.40;;;6.83;;
2386;SDS011;49473;50.772;8.768;2023-06-22T08:05:59;7.07;;;6.67;;
2386;SDS011;49473;50.772;8.768;2023-06-22T08:08:25;7.37;;;6.60;;
2386;SDS011;49473;50.772;8.768;2023-06-22T08:10:52;7.90;;;7.40;;
2386;SDS011;49473;50.772;8.768;2023-06-22T08:13:19;8.37;;;7.70;;
2386;SDS011;49473;50.772;8.768;2023-06-22T08:15:45;7.57;;;7.00;;
2386;SDS011;49473;50.772;8.768;2023-06-22T08:18:12;7.60;;;7.10;;
2386;SDS011;49473;50.772;8.768;2023-06-22T08:20:39;7.20;;;6.80;;
2386;SDS011;49473;50.772;8.768;2023-06-22T08:23:07;7.30;;;6.77;;
2386;SDS011;49473;50.772;8.768;2023-06-22T08:25:34;7.53;;;7.13;;
2386;SDS011;49473;50.772;8.768;2023-06-22T08:28:01;6.57;;;6.17;;
2386;SDS011;49473;50.772;8.768;2023-06-22T08:30:29;6.80;;;6.30;;
2386;SDS011;49473;50.772;8.768;2023-06-22T08:32:56;7.10;;;6.50;;
2386;SDS011;49473;50.772;8.768;2023-06-22T08:35:22;6.93;;;6.47;;
2386;SDS011;49473;50.772;8.768;2023-06-22T08:37:49;6.57;;;6.13;;
2386;SDS011;49473;50.772;8.768;2023-06-22T08:40:18;7.57;;;6.97;;
2386;SDS011;49473;50.772;8.768;2023-06-22T08:42:46;7.47;;;6.83;;
2386;SDS011;49473;50.772;8.768;2023-06-22T08:45:13;7.23;;;6.83;;
2386;SDS011;49473;50.772;8.768;2023-06-22T08:47:41;8.00;;;7.37;;
2386;SDS011;49473;50.772;8.768;2023-06-22T08:50:08;7.73;;;7.23;;
2386;SDS011;49473;50.772;8.768;2023-06-22T08:52:36;7.50;;;7.00;;
2386;SDS011;49473;50.772;8.768;2023-06-22T08:55:03;8.80;;;8.27;;
2386;SDS011;49473;50.772;8.768;2023-06-22T08:57:31;7.17;;;6.77;;
2386;SDS011;49473;50.772;8.768;2023-06-22T08:59:58;8.03;;;7.43;;
2386;SDS011;49473;50.772;8.768;2023-06-22T09:02:25;8.30;;;7.70;;
2386;SDS011;49473;50.772;8.768;2023-06-22T09:04:55;8.00;;;7.50;;
2386;SDS011;49473;50.772;8.768;2023-06-22T09:07:22;7.80;;;7.20;;
2386;SDS011;49473;50.772;8.768;2023-06-22T09:09:49;7.90;;;7.40;;
2386;SDS011;49473;50.772;8.768;2023-06-22T09:12:16;7.87;;;7.37;;
2386;SDS011;49473;50.772;8.768;2023-06-22T09:14:46;8.30;;;7.70;;
2386;SDS011;49473;50.772;8.768;2023-06-22T09:17:13;8.97;;;7.20;;
2386;SDS011;49473;50.772;8.768;2023-06-22T09:19:40;8.47;;;7.87;;
2386;SDS011;49473;50.772;8.768;2023-06-22T09:22:06;8.70;;;8.10;;
2386;SDS011;49473;50.772;8.768;2023-06-22T09:24:33;9.60;;;8.80;;
2386;SDS011;49473;50.772;8.768;2023-06-22T09:27:00;9.03;;;8.30;;
2386;SDS011;49473;50.772;8.768;2023-06-22T09:29:26;8.43;;;7.83;;
2386;SDS011;49473;50.772;8.768;2023-06-22T09:31:54;8.73;;;8.00;;
2386;SDS011;49473;50.772;8.768;2023-06-22T09:34:21;9.73;;;8.63;;
2386;SDS011;49473;50.772;8.768;2023-06-22T09:36:48;8.90;;;8.20;;
2386;SDS011;49473;50.772;8.768;2023-06-22T09:39:15;8.47;;;7.93;;
2386;SDS011;49473;50.772;8.768;2023-06-22T09:41:41;9.70;;;8.97;;
2386;SDS011;49473;50.772;8.768;2023-06-22T09:44:08;8.57;;;7.87;;
2386;SDS011;49473;50.772;8.768;2023-06-22T09:46:35;8.00;;;7.40;;
2386;SDS011;49473;50.772;8.768;2023-06-22T09:49:03;8.67;;;8.00;;
2386;SDS011;49473;50.772;8.768;2023-06-22T09:51:29;8.07;;;7.57;;
2386;SDS011;49473;50.772;8.768;2023-06-22T09:53:56;8.83;;;8.03;;
2386;SDS011;49473;50.772;8.768;2023-06-22T09:56:23;8.73;;;8.17;;
2386;SDS011;49473;50.772;8.768;2023-06-22T09:58:50;8.40;;;7.70;;
2386;SDS011;49473;50.772;8.768;2023-06-22T10:01:17;8.40;;;7.73;;
2386;SDS011;49473;50.772;8.768;2023-06-22T10:03:46;8.30;;;7.70;;
2386;SDS011;49473;50.772;8.768;2023-06-22T10:06:14;8.87;;;7.90;;
2386;SDS011;49473;50.772;8.768;2023-06-22T10:08:40;7.70;;;7.20;;
2386;SDS011;49473;50.772;8.768;2023-06-22T10:11:07;8.63;;;8.10;;
2386;SDS011;49473;50.772;8.768;2023-06-22T10:13:34;7.20;;;6.70;;
2386;SDS011;49473;50.772;8.768;2023-06-22T10:16:00;8.17;;;7.67;;
2386;SDS011;49473;50.772;8.768;2023-06-22T10:18:27;8.70;;;8.10;;
2386;SDS011;49473;50.772;8.768;2023-06-22T10:20:55;8.10;;;7.33;;
2386;SDS011;49473;50.772;8.768;2023-06-22T10:23:23;9.63;;;8.83;;
2386;SDS011;49473;50.772;8.768;2023-06-22T10:25:50;8.53;;;8.03;;
2386;SDS011;49473;50.772;8.768;2023-06-22T10:28:17;8.40;;;7.80;;
2386;SDS011;49473;50.772;8.768;2023-06-22T10:30:43;9.10;;;8.50;;
2386;SDS011;49473;50.772;8.768;2023-06-22T10:33:11;9.60;;;9.00;;
2386;SDS011;49473;50.772;8.768;2023-06-22T10:35:38;8.47;;;7.87;;
2386;SDS011;49473;50.772;8.768;2023-06-22T10:38:07;8.93;;;8.23;;
2386;SDS011;49473;50.772;8.768;2023-06-22T10:40:36;9.07;;;8.57;;
2386;SDS011;49473;50.772;8.768;2023-06-22T10:43:04;8.53;;;7.70;;
2386;SDS011;49473;50.772;8.768;2023-06-22T10:45:31;8.60;;;7.90;;
2386;SDS011;49473;50.772;8.768;2023-06-22T10:47:57;9.10;;;8.60;;
2386;SDS011;49473;50.772;8.768;2023-06-22T10:50:24;8.90;;;7.90;;
2386;SDS011;49473;50.772;8.768;2023-06-22T10:52:51;8.40;;;7.80;;
2386;SDS011;49473;50.772;8.768;2023-06-22T10:55:18;8.67;;;8.17;;
2386;SDS011;49473;50.772;8.768;2023-06-22T10:57:46;9.10;;;8.37;;
2386;SDS011;49473;50.772;8.768;2023-06-22T11:00:13;8.57;;;7.97;;
2386;SDS011;49473;50.772;8.768;2023-06-22T11:02:41;8.10;;;7.60;;
2386;SDS011;49473;50.772;8.768;2023-06-22T11:05:08;8.73;;;7.90;;
2386;SDS011;49473;50.772;8.768;2023-06-22T11:07:34;8.43;;;7.70;;
2386;SDS011;49473;50.772;8.768;2023-06-22T11:10:01;7.90;;;7.33;;
2386;SDS011;49473;50.772;8.768;2023-06-22T11:12:28;8.27;;;7.67;;
2386;SDS011;49473;50.772;8.768;2023-06-22T11:14:56;8.43;;;7.70;;
2386;SDS011;49473;50.772;8.768;2023-06-22T11:17:23;8.60;;;7.73;;
2386;SDS011;49473;50.772;8.768;2023-06-22T11:19:50;8.33;;;7.63;;
2386;SDS011;49473;50.772;8.768;2023-06-22T11:22:17;8.37;;;7.67;;
2386;SDS011;49473;50.772;8.768;2023-06-22T11:24:43;7.83;;;7.23;;
2386;SDS011;49473;50.772;8.768;2023-06-22T11:27:10;7.13;;;6.63;;
2386;SDS011;49473;50.772;8.768;2023-06-22T11:29:37;7.90;;;7.40;;
2386;SDS011;49473;50.772;8.768;2023-06-22T11:32:06;7.00;;;6.60;;
2386;SDS011;49473;50.772;8.768;2023-06-22T11:34:33;7.40;;;7.00;;
2386;SDS011;49473;50.772;8.768;2023-06-22T11:37:00;7.53;;;7.03;;
2386;SDS011;49473;50.772;8.768;2023-06-22T11:39:27;6.50;;;6.10;;
2386;SDS011;49473;50.772;8.768;2023-06-22T11:41:54;6.43;;;5.93;;
2386;SDS011;49473;50.772;8.768;2023-06-22T11:44:20;7.00;;;6.40;;
2386;SDS011;49473;50.772;8.768;2023-06-22T11:46:47;7.40;;;6.80;;
2386;SDS011;49473;50.772;8.768;2023-06-22T11:49:15;6.63;;;6.13;;
2386;SDS011;49473;50.772;8.768;2023-06-22T11:51:42;6.60;;;6.20;;
2386;SDS011;49473;50.772;8.768;2023-06-22T11:54:08;7.93;;;7.13;;
2386;SDS011;49473;50.772;8.768;2023-06-22T11:56:35;7.10;;;6.50;;
2386;SDS011;49473;50.772;8.768;2023-06-22T11:59:02;6.30;;;5.93;;
2386;SDS011;49473;50.772;8.768;2023-06-22T12:01:28;6.23;;;5.80;;
2386;SDS011;49473;50.772;8.768;2023-06-22T12:03:55;6.93;;;6.43;;
2386;SDS011;49473;50.772;8.768;2023-06-22T12:06:23;6.37;;;5.97;;
2386;SDS011;49473;50.772;8.768;2023-06-22T12:08:50;6.20;;;5.80;;
2386;SDS011;49473;50.772;8.768;2023-06-22T12:11:16;6.90;;;6.30;;
2386;SDS011;49473;50.772;8.768;2023-06-22T12:13:43;6.50;;;6.10;;
2386;SDS011;49473;50.772;8.768;2023-06-22T12:16:10;6.23;;;5.83;;
2386;SDS011;49473;50.772;8.768;2023-06-22T12:18:37;6.63;;;6.23;;
2386;SDS011;49473;50.772;8.768;2023-06-22T12:21:03;6.60;;;6.10;;
2386;SDS011;49473;50.772;8.768;2023-06-22T12:23:32;6.33;;;5.93;;
2386;SDS011;49473;50.772;8.768;2023-06-22T12:25:58;6.70;;;6.20;;
2386;SDS011;49473;50.772;8.768;2023-06-22T12:28:26;6.60;;;6.03;;
2386;SDS011;49473;50.772;8.768;2023-06-22T12:30:53;7.27;;;6.77;;
2386;SDS011;49473;50.772;8.768;2023-06-22T12:33:19;7.10;;;6.70;;
2386;SDS011;49473;50.772;8.768;2023-06-22T12:35:46;7.50;;;6.97;;
2386;SDS011;49473;50.772;8.768;2023-06-22T12:38:14;6.53;;;6.10;;
2386;SDS011;49473;50.772;8.768;2023-06-22T12:40:42;6.70;;;6.10;;
2386;SDS011;49473;50.772;8.768;2023-06-22T12:43:08;6.03;;;5.70;;
2386;SDS011;49473;50.772;8.768;2023-06-22T12:45:35;5.73;;;5.33;;
2386;SDS011;49473;50.772;8.768;2023-06-22T12:48:02;6.90;;;6.50;;
2386;SDS011;49473;50.772;8.768;2023-06-22T12:50:29;6.60;;;6.10;;
2386;SDS011;49473;50.772;8.768;2023-06-22T12:52:55;6.70;;;6.10;;
2386;SDS011;49473;50.772;8.768;2023-06-22T12:55:22;7.00;;;6.60;;
2386;SDS011;49473;50.772;8.768;2023-06-22T12:57:50;6.10;;;5.60;;
2386;SDS011;49473;50.772;8.768;2023-06-22T13:00:17;7.53;;;6.80;;
2386;SDS011;49473;50.772;8.768;2023-06-22T13:02:44;7.17;;;6.67;;
2386;SDS011;49473;50.772;8.768;2023-06-22T13:05:11;7.00;;;6.40;;
2386;SDS011;49473;50.772;8.768;2023-06-22T13:07:38;6.60;;;6.00;;
2386;SDS011;49473;50.772;8.768;2023-06-22T13:10:05;6.03;;;5.53;;
2386;SDS011;49473;50.772;8.768;2023-06-22T13:12:32;6.30;;;5.70;;
2386;SDS011;49473;50.772;8.768;2023-06-22T13:15:00;6.73;;;6.00;;
2386;SDS011;49473;50.772;8.768;2023-06-22T13:17:28;7.23;;;5.80;;
2386;SDS011;49473;50.772;8.768;2023-06-22T13:19:54;6.83;;;5.70;;
2386;SDS011;49473;50.772;8.768;2023-06-22T13:22:25;6.07;;;5.43;;
2386;SDS011;49473;50.772;8.768;2023-06-22T13:24:54;5.83;;;5.20;;
2386;SDS011;49473;50.772;8.768;2023-06-22T13:27:21;6.73;;;5.70;;
2386;SDS011;49473;50.772;8.768;2023-06-22T13:29:47;5.97;;;5.47;;
2386;SDS011;49473;50.772;8.768;2023-06-22T13:32:16;5.90;;;5.50;;
2386;SDS011;49473;50.772;8.768;2023-06-22T13:34:43;6.10;;;5.50;;
2386;SDS011;49473;50.772;8.768;2023-06-22T13:37:10;5.90;;;5.43;;
2386;SDS011;49473;50.772;8.768;2023-06-22T13:39:36;6.60;;;6.10;;
2386;SDS011;49473;50.772;8.768;2023-06-22T13:42:04;6.63;;;5.93;;
2386;SDS011;49473;50.772;8.768;2023-06-22T13:44:31;6.17;;;5.67;;
2386;SDS011;49473;50.772;8.768;2023-06-22T13:46:58;5.90;;;5.30;;
2386;SDS011;49473;50.772;8.768;2023-06-22T13:49:26;6.80;;;6.00;;
2386;SDS011;49473;50.772;8.768;2023-06-22T13:51:53;6.00;;;5.30;;
2386;SDS011;49473;50.772;8.768;2023-06-22T13:54:21;5.93;;;5.50;;
2386;SDS011;49473;50.772;8.768;2023-06-22T13:56:48;6.50;;;6.00;;
2386;SDS011;49473;50.772;8.768;2023-06-22T13:59:14;8.13;;;5.63;;
2386;SDS011;49473;50.772;8.768;2023-06-22T14:01:41;5.37;;;4.83;;
2386;SDS011;49473;50.772;8.768;2023-06-22T14:04:08;7.97;;;6.40;;
2386;SDS011;49473;50.772;8.768;2023-06-22T14:06:36;8.03;;;6.37;;
2386;SDS011;49473;50.772;8.768;2023-06-22T14:09:03;6.87;;;6.37;;
2386;SDS011;49473;50.772;8.768;2023-06-22T14:11:30;7.33;;;6.27;;
2386;SDS011;49473;50.772;8.768;2023-06-22T14:13:57;7.13;;;6.53;;
2386;SDS011;49473;50.772;8.768;2023-06-22T14:16:23;7.50;;;6.90;;
2386;SDS011;49473;50.772;8.768;2023-06-22T14:18:50;6.60;;;6.10;;
2386;SDS011;49473;50.772;8.768;2023-06-22T14:21:17;7.53;;;6.83;;
2386;SDS011;49473;50.772;8.768;2023-06-22T14:23:45;7.30;;;6.70;;
2386;SDS011;49473;50.772;8.768;2023-06-22T14:26:14;8.60;;;7.90;;
2386;SDS011;49473;50.772;8.768;2023-06-22T14:28:42;7.53;;;6.83;;
2386;SDS011;49473;50.772;8.768;2023-06-22T14:31:12;7.50;;;6.73;;
2386;SDS011;49473;50.772;8.768;2023-06-22T14:33:39;7.80;;;6.80;;
2386;SDS011;49473;50.772;8.768;2023-06-22T14:36:05;10.90;;;7.57;;
2386;SDS011;49473;50.772;8.768;2023-06-22T14:38:32;8.37;;;7.67;;
2386;SDS011;49473;50.772;8.768;2023-06-22T14:41:00;11.10;;;7.40;;
2386;SDS011;49473;50.772;8.768;2023-06-22T14:43:27;10.03;;;6.97;;
2386;SDS011;49473;50.772;8.768;2023-06-22T14:45:53;8.00;;;7.20;;
2386;SDS011;49473;50.772;8.768;2023-06-22T14:48:20;7.37;;;6.80;;
2386;SDS011;49473;50.772;8.768;2023-06-22T14:50:47;8.43;;;7.60;;
2386;SDS011;49473;50.772;8.768;2023-06-22T14:53:14;9.40;;;7.10;;